createdAt,value
2019-04-03T00:02:27.636Z,14.96
2019-04-03T00:05:00.304Z,14.93
2019-04-03T00:07:35.165Z,14.89
2019-04-03T00:10:09.543Z,14.89
2019-04-03T00:12:42.041Z,14.86
2019-04-03T00:15:15.301Z,14.81
2019-04-03T00:17:47.751Z,14.75
2019-04-03T00:20:20.371Z,14.75
2019-04-03T00:22:52.757Z,14.72
2019-04-03T00:25:25.323Z,14.72
2019-04-03T00:27:57.751Z,14.72
2019-04-03T00:30:31.728Z,14.73
2019-04-03T00:33:04.115Z,14.72
2019-04-03T00:35:36.615Z,14.67
2019-04-03T00:38:09.650Z,14.65
2019-04-03T00:40:42.256Z,14.59
2019-04-03T00:43:15.531Z,14.56
2019-04-03T00:45:49.325Z,14.53
2019-04-03T00:48:21.627Z,14.53
2019-04-03T00:50:56.286Z,14.53
2019-04-03T00:53:28.555Z,14.50
2019-04-03T00:56:00.842Z,14.50
2019-04-03T00:58:43.289Z,14.47
2019-04-03T01:01:16.196Z,14.24
2019-04-03T01:03:50.306Z,14.24
2019-04-03T01:06:22.249Z,14.46
2019-04-03T01:08:54.523Z,14.46
2019-04-03T01:11:30.144Z,14.44
2019-04-03T01:14:02.304Z,14.41
2019-04-03T01:16:34.663Z,14.36
2019-04-03T01:19:07.297Z,14.36
2019-04-03T01:21:39.873Z,14.34
2019-04-03T01:24:12.397Z,14.34
2019-04-03T01:26:44.056Z,14.12
2019-04-03T01:29:16.333Z,14.12
2019-04-03T01:31:48.090Z,14.25
2019-04-03T01:34:20.420Z,14.25
2019-04-03T01:36:52.793Z,14.20
2019-04-03T01:39:25.293Z,14.19
2019-04-03T01:41:56.931Z,14.03
2019-04-03T01:44:29.422Z,14.03
2019-04-03T01:47:01.780Z,14.07
2019-04-03T01:49:34.374Z,14.03
2019-04-03T01:52:07.104Z,13.74
2019-04-03T01:54:40.468Z,13.74
2019-04-03T01:57:12.905Z,13.85
2019-04-03T01:59:46.718Z,13.90
2019-04-03T02:02:20.641Z,13.88
2019-04-03T02:04:54.039Z,13.84
2019-04-03T02:07:26.483Z,13.80
2019-04-03T02:09:58.762Z,13.74
2019-04-03T02:12:31.292Z,13.67
2019-04-03T02:15:03.697Z,13.53
2019-04-03T02:17:36.455Z,13.53
2019-04-03T02:20:11.400Z,13.29
2019-04-03T02:22:43.888Z,12.99
2019-04-03T02:25:16.372Z,12.99
2019-04-03T02:27:48.536Z,12.86
2019-04-03T02:30:20.724Z,12.71
2019-04-03T02:32:56.625Z,12.63
2019-04-03T02:35:27.512Z,12.54
2019-04-03T02:37:59.776Z,12.37
2019-04-03T02:40:33.125Z,12.35
2019-04-03T02:43:05.845Z,12.14
2019-04-03T02:45:38.466Z,12.14
2019-04-03T02:48:10.901Z,12.02
2019-04-03T02:50:46.546Z,11.90
2019-04-03T02:53:18.046Z,11.31
2019-04-03T02:55:50.527Z,11.31
2019-04-03T02:58:23.446Z,11.27
2019-04-03T03:00:56.008Z,11.23
2019-04-03T03:03:29.034Z,11.10
2019-04-03T03:06:01.824Z,11.20
2019-04-03T03:08:35.319Z,11.08
2019-04-03T03:11:10.004Z,10.89
2019-04-03T03:13:42.842Z,10.89
2019-04-03T03:16:17.967Z,10.92
2019-04-03T03:18:49.287Z,10.89
2019-04-03T03:21:23.315Z,10.96
2019-04-03T03:23:57.256Z,10.82
2019-04-03T03:26:31.300Z,10.79
2019-04-03T03:29:16.991Z,10.71
2019-04-03T03:32:03.038Z,10.71
2019-04-03T03:34:16.842Z,10.83
2019-04-03T03:36:50.848Z,10.91
2019-04-03T03:39:23.042Z,10.93
2019-04-03T03:41:58.607Z,10.89
2019-04-03T03:44:31.880Z,10.93
2019-04-03T03:47:27.666Z,10.96
2019-04-03T03:50:00.524Z,10.89
2019-04-03T03:52:38.224Z,10.80
2019-04-03T03:55:13.850Z,10.73
2019-04-03T04:09:38.040Z,10.70
2019-04-03T04:12:11.345Z,10.70
2019-04-03T04:14:46.626Z,10.97
2019-04-03T04:17:19.668Z,10.97
2019-04-03T04:19:52.679Z,10.78
2019-04-03T04:22:27.848Z,10.94
2019-04-03T04:25:04.054Z,10.58
2019-04-03T04:27:38.629Z,10.58
2019-04-03T04:30:12.919Z,10.51
2019-04-03T04:32:46.512Z,10.57
2019-04-03T04:35:21.456Z,10.58
2019-04-03T04:37:55.273Z,10.60
2019-04-03T04:40:29.007Z,10.57
2019-04-03T04:43:03.622Z,10.64
2019-04-03T04:45:40.687Z,10.64
2019-04-03T04:48:15.833Z,10.66
2019-04-03T04:50:47.421Z,10.64
2019-04-03T04:53:20.082Z,10.61
2019-04-03T04:55:52.760Z,10.65
2019-04-03T04:58:25.331Z,10.65
2019-04-03T05:00:59.512Z,10.81
2019-04-03T05:03:31.911Z,10.81
2019-04-03T05:06:04.325Z,10.79
2019-04-03T05:08:36.714Z,10.75
2019-04-03T05:11:09.322Z,10.75
2019-04-03T05:13:41.856Z,10.73
2019-04-03T05:16:14.609Z,10.73
2019-04-03T05:18:47.314Z,10.73
2019-04-03T05:21:21.743Z,10.60
2019-04-03T05:23:55.945Z,10.60
2019-04-03T05:26:28.760Z,10.66
2019-04-03T05:29:01.314Z,10.70
2019-04-03T05:31:34.057Z,10.79
2019-04-03T05:34:16.973Z,10.79
2019-04-03T05:36:51.994Z,10.86
2019-04-03T05:39:24.738Z,10.88
2019-04-03T05:41:59.524Z,10.83
2019-04-03T05:44:33.465Z,10.92
2019-04-03T05:47:08.135Z,10.92
2019-04-03T05:49:42.281Z,10.92
2019-04-03T05:52:14.897Z,10.88
2019-04-03T05:54:49.837Z,10.88
2019-04-03T05:57:22.394Z,11.13
2019-04-03T06:00:00.650Z,11.00
2019-04-03T06:02:30.542Z,10.99
2019-04-03T06:05:05.970Z,11.15
2019-04-03T06:07:37.562Z,11.08
2019-04-03T06:10:11.733Z,11.02
2019-04-03T06:12:46.333Z,10.93
2019-04-03T06:15:21.813Z,11.06
2019-04-03T06:17:55.090Z,11.35
2019-04-03T06:20:28.167Z,11.35
2019-04-03T06:23:02.564Z,11.53
2019-04-03T06:25:35.292Z,11.59
2019-04-03T06:28:07.627Z,11.62
2019-04-03T06:30:41.983Z,11.62
2019-04-03T06:33:14.983Z,11.32
2019-04-03T06:35:47.992Z,11.71
2019-04-03T06:38:20.365Z,11.71
2019-04-03T06:40:52.392Z,11.81
2019-04-03T06:43:24.312Z,11.58
2019-04-03T06:45:59.593Z,12.18
2019-04-03T06:48:32.309Z,12.18
2019-04-03T06:51:04.280Z,12.35
2019-04-03T06:53:36.245Z,12.55
2019-04-03T06:56:10.448Z,12.70
2019-04-03T06:58:44.409Z,12.36
2019-04-03T07:01:20.914Z,12.29
2019-04-03T07:03:55.041Z,12.40
2019-04-03T07:06:27.698Z,12.53
2019-04-03T07:09:00.499Z,12.41
2019-04-03T07:11:34.625Z,12.32
2019-04-03T07:14:10.721Z,12.47
2019-04-03T07:16:46.558Z,12.50
2019-04-03T07:19:19.319Z,12.71
2019-04-03T07:21:52.999Z,13.07
2019-04-03T07:28:09.065Z,12.96
2019-04-03T07:30:44.844Z,12.66
2019-04-03T07:33:18.600Z,12.66
2019-04-03T07:35:51.452Z,13.24
2019-04-03T07:38:23.835Z,13.52
2019-04-03T07:40:56.367Z,13.59
2019-04-03T07:43:28.719Z,13.31
2019-04-03T07:46:01.685Z,13.31
2019-04-03T07:48:37.154Z,13.18
2019-04-03T07:51:12.498Z,13.61
2019-04-03T07:53:43.596Z,13.36
2019-04-03T07:56:16.593Z,13.36
2019-04-03T07:58:48.248Z,13.79
2019-04-03T08:01:23.443Z,13.30
2019-04-03T08:03:55.113Z,13.31
2019-04-03T08:06:27.911Z,13.23
2019-04-03T08:09:08.433Z,13.27
2019-04-03T08:11:37.239Z,13.49
2019-04-03T08:14:09.975Z,13.85
2019-04-03T08:16:43.225Z,14.22
2019-04-03T08:19:15.671Z,14.36
2019-04-03T08:21:50.604Z,14.36
2019-04-03T08:24:23.543Z,14.70
2019-04-03T08:26:56.266Z,15.36
2019-04-03T08:29:28.598Z,15.60
2019-04-03T08:32:02.740Z,15.60
2019-04-03T08:34:35.317Z,15.46
2019-04-03T08:37:10.379Z,14.92
2019-04-03T08:39:43.988Z,14.92
2019-04-03T08:42:16.641Z,15.21
2019-04-03T08:44:49.320Z,15.16
2019-04-03T08:47:21.751Z,13.99
2019-04-03T08:49:56.400Z,13.99
2019-04-03T08:52:28.448Z,13.97
2019-04-03T08:55:00.971Z,13.92
2019-04-03T08:57:33.363Z,13.86
2019-04-03T09:00:09.476Z,13.67
2019-04-03T09:02:44.104Z,13.71
2019-04-03T09:05:19.704Z,13.77
2019-04-03T09:07:55.358Z,13.77
2019-04-03T09:10:27.512Z,13.58
2019-04-03T09:12:59.874Z,13.80
2019-04-03T09:15:32.454Z,13.91
2019-04-03T09:18:06.426Z,13.91
2019-04-03T09:20:43.466Z,14.27
2019-04-03T09:23:17.318Z,14.28
2019-04-03T09:25:49.869Z,13.86
2019-04-03T09:28:22.811Z,13.86
2019-04-03T09:30:55.503Z,14.07
2019-04-03T09:33:29.830Z,14.49
2019-04-03T09:36:04.377Z,14.90
2019-04-03T09:38:36.507Z,14.92
2019-04-03T09:41:09.357Z,15.60
2019-04-03T09:43:43.505Z,15.04
2019-04-03T09:46:15.775Z,15.04
2019-04-03T09:48:48.299Z,14.89
2019-04-03T09:51:22.780Z,15.19
2019-04-03T09:53:57.071Z,15.61
2019-04-03T09:56:28.924Z,15.61
2019-04-03T09:59:06.732Z,15.50
2019-04-03T10:01:41.606Z,16.44
2019-04-03T10:04:14.376Z,16.44
2019-04-03T10:06:47.464Z,17.20
2019-04-03T10:09:20.071Z,17.26
2019-04-03T10:11:53.031Z,16.35
2019-04-03T10:14:25.766Z,17.12
2019-04-03T10:16:59.000Z,16.92
2019-04-03T10:19:33.442Z,16.92
2019-04-03T10:22:06.777Z,16.73
2019-04-03T10:24:39.290Z,16.30
2019-04-03T10:27:12.666Z,16.42
2019-04-03T10:29:45.494Z,16.42
2019-04-03T10:32:18.290Z,16.11
2019-04-03T10:34:50.370Z,15.92
2019-04-03T10:37:22.275Z,15.62
2019-04-03T10:39:54.131Z,16.12
2019-04-03T10:42:26.014Z,16.33
2019-04-03T10:44:58.331Z,17.33
2019-04-03T10:47:41.343Z,17.84
2019-04-03T10:50:09.341Z,17.89
2019-04-03T10:52:44.048Z,17.59
2019-04-03T10:55:17.079Z,17.91
2019-04-03T10:57:50.400Z,17.55
2019-04-03T11:00:24.880Z,17.50
2019-04-03T11:02:57.476Z,17.23
2019-04-03T11:05:30.356Z,17.75
2019-04-03T11:08:04.291Z,17.63
2019-04-03T11:10:38.618Z,17.35
2019-04-03T11:13:11.315Z,17.35
2019-04-03T11:15:46.003Z,17.90
2019-04-03T11:18:18.871Z,17.89
2019-04-03T11:20:52.466Z,17.65
2019-04-03T11:23:38.651Z,18.33
2019-04-03T11:26:00.761Z,18.68
2019-04-03T11:28:36.987Z,18.36
2019-04-03T11:31:07.616Z,17.75
2019-04-03T11:33:40.452Z,16.45
2019-04-03T11:38:53.578Z,17.60
2019-04-03T11:41:26.012Z,17.79
2019-04-03T11:43:58.547Z,17.77
2019-04-03T11:47:20.020Z,18.31
2019-04-03T11:49:53.235Z,18.28
2019-04-03T11:52:25.737Z,18.28
2019-04-03T11:54:58.316Z,18.65
2019-04-03T11:57:30.772Z,18.56
2019-04-03T12:00:05.326Z,18.56
2019-04-03T12:02:39.102Z,19.54
2019-04-03T12:05:15.371Z,20.69
2019-04-03T12:11:14.262Z,21.53
2019-04-03T12:13:46.749Z,22.43
2019-04-03T12:16:20.589Z,23.06
2019-04-03T12:18:53.842Z,22.66
2019-04-03T12:21:32.194Z,22.79
2019-04-03T12:24:05.293Z,24.07
2019-04-03T12:26:42.985Z,25.95
2019-04-03T12:29:14.062Z,25.95
2019-04-03T12:31:48.298Z,25.99
2019-04-03T12:34:24.049Z,24.71
2019-04-03T12:36:57.256Z,24.71
2019-04-03T12:39:29.753Z,25.60
2019-04-03T12:42:02.561Z,26.03
2019-04-03T12:44:36.830Z,26.07
2019-04-03T12:47:12.373Z,24.00
2019-04-03T12:49:45.304Z,23.91
2019-04-03T12:52:19.379Z,22.05
2019-04-03T12:54:53.756Z,22.03
2019-04-03T12:57:29.141Z,22.03
2019-04-03T13:00:04.697Z,19.45
2019-04-03T13:02:37.418Z,19.45
2019-04-03T13:05:13.478Z,19.82
2019-04-03T13:07:47.472Z,20.41
2019-04-03T13:10:23.547Z,20.88
2019-04-03T13:12:57.056Z,20.50
2019-04-03T13:15:29.661Z,21.06
2019-04-03T13:18:05.527Z,21.08
2019-04-03T13:20:38.690Z,20.96
2019-04-03T13:23:13.314Z,20.84
2019-04-03T13:25:54.594Z,23.30
2019-04-03T13:28:29.451Z,22.63
2019-04-03T13:31:06.620Z,23.72
2019-04-03T13:33:39.796Z,22.73
2019-04-03T13:36:13.754Z,21.36
2019-04-03T14:08:19.777Z,18.63
2019-04-03T14:10:53.332Z,17.95
2019-04-03T14:13:26.269Z,17.82
2019-04-03T14:15:59.085Z,19.84
2019-04-03T14:18:31.558Z,19.84
2019-04-03T14:21:04.105Z,20.24
2019-04-03T14:23:39.768Z,18.68
2019-04-03T14:26:13.828Z,18.90
2019-04-03T14:28:46.356Z,19.92
2019-04-03T14:31:19.296Z,18.11
2019-04-03T14:33:51.241Z,16.54
2019-04-03T14:40:57.349Z,17.35
2019-04-03T14:44:09.929Z,17.35
2019-04-03T14:46:43.526Z,17.16
2019-04-03T14:49:45.298Z,17.36
2019-04-03T14:56:09.952Z,17.17
2019-04-03T15:06:16.402Z,14.64
2019-04-03T15:08:49.160Z,14.79
2019-04-03T15:11:22.047Z,14.79
2019-04-03T15:13:54.500Z,13.82
2019-04-03T15:16:27.629Z,12.85
2019-04-03T15:19:02.604Z,12.62
2019-04-03T15:21:35.514Z,12.67
2019-04-03T15:24:08.943Z,12.35
2019-04-03T15:26:45.286Z,11.85
2019-04-03T15:29:18.291Z,11.62
2019-04-03T15:31:51.535Z,11.47
2019-04-03T15:34:27.740Z,11.47
2019-04-03T15:37:00.704Z,11.63
2019-04-03T15:39:33.512Z,11.38
2019-04-03T15:42:06.686Z,11.14
2019-04-03T15:44:42.618Z,11.26
2019-04-03T15:47:28.258Z,11.23
2019-04-03T15:49:52.701Z,10.91
2019-04-03T15:52:25.718Z,10.62
2019-04-03T15:54:58.836Z,10.55
2019-04-03T15:57:32.058Z,9.98
2019-04-03T16:00:12.893Z,9.58
2019-04-03T16:02:46.681Z,9.65
2019-04-03T16:05:20.141Z,9.60
2019-04-03T16:07:52.831Z,9.21
2019-04-03T16:10:25.827Z,9.21
2019-04-03T16:13:09.055Z,9.23
2019-04-03T16:15:42.051Z,7.96
2019-04-03T16:18:14.714Z,6.56
2019-04-03T16:20:50.092Z,5.60
2019-04-03T16:23:23.649Z,5.60
2019-04-03T16:25:56.511Z,5.77
2019-04-03T16:28:29.679Z,5.88
2019-04-03T16:31:03.895Z,5.96
2019-04-03T16:33:37.017Z,5.66
2019-04-03T16:36:11.310Z,5.59
2019-04-03T16:38:46.928Z,5.83
2019-04-03T16:41:19.871Z,6.03
2019-04-03T16:43:52.894Z,6.03
2019-04-03T16:46:27.670Z,5.69
2019-04-03T16:49:00.328Z,5.64
2019-04-03T16:51:33.785Z,5.71
2019-04-03T16:54:10.282Z,5.71
2019-04-03T16:56:41.628Z,5.53
2019-04-03T16:59:15.497Z,5.53
2019-04-03T17:01:49.432Z,5.57
2019-04-03T17:04:27.195Z,5.52
2019-04-03T17:06:57.609Z,5.75
2019-04-03T17:09:32.618Z,5.79
2019-04-03T17:12:04.593Z,5.81
2019-04-03T17:14:37.730Z,5.95
2019-04-03T17:17:13.646Z,5.97
2019-04-03T17:19:44.812Z,6.10
2019-04-03T17:22:19.037Z,6.16
2019-04-03T17:24:54.023Z,6.19
2019-04-03T17:27:25.681Z,5.98
2019-04-03T17:29:58.645Z,5.79
2019-04-03T17:32:31.732Z,5.49
2019-04-03T17:35:06.767Z,5.43
2019-04-03T17:37:39.361Z,5.48
2019-04-03T17:40:13.475Z,5.67
2019-04-03T17:42:46.092Z,5.74
2019-04-03T17:45:18.335Z,5.71
2019-04-03T17:47:53.912Z,5.60
2019-04-03T17:50:29.405Z,5.60
2019-04-03T17:53:01.766Z,5.64
2019-04-03T17:55:34.568Z,5.60
2019-04-03T17:58:07.606Z,5.59
2019-04-03T18:00:40.534Z,5.68
2019-04-03T18:03:13.446Z,5.47
2019-04-03T18:05:45.830Z,5.58
2019-04-03T18:08:19.629Z,5.63
2019-04-03T18:10:52.306Z,5.69
2019-04-03T18:13:25.044Z,5.65
2019-04-03T18:15:58.908Z,5.65
2019-04-03T18:18:33.354Z,5.49
2019-04-03T18:21:06.364Z,5.55
2019-04-03T18:23:40.348Z,5.61
2019-04-03T18:26:13.082Z,5.59
2019-04-03T18:28:45.716Z,5.73
2019-04-03T18:31:21.310Z,5.78
2019-04-03T18:33:56.418Z,5.82
2019-04-03T18:36:31.200Z,5.77
2019-04-03T18:39:05.048Z,5.77
2019-04-03T18:41:37.877Z,5.68
2019-04-03T18:44:21.535Z,5.68
2019-04-03T18:46:44.857Z,5.79
2019-04-03T18:49:17.571Z,5.79
2019-04-03T18:51:50.298Z,5.86
2019-04-03T18:54:23.286Z,5.75
2019-04-03T18:56:55.799Z,5.41
2019-04-03T18:59:28.366Z,5.41
2019-04-03T19:02:01.977Z,5.61
2019-04-03T19:04:40.829Z,5.61
2019-04-03T19:07:15.271Z,5.88
2019-04-03T19:09:47.818Z,5.77
2019-04-03T19:12:20.360Z,5.82
2019-04-03T19:14:53.019Z,5.69
2019-04-03T19:17:25.528Z,5.68
2019-04-03T19:20:09.687Z,5.61
2019-04-03T19:22:32.796Z,5.49
2019-04-03T19:25:07.501Z,5.62
2019-04-03T19:27:40.306Z,5.73
2019-04-03T19:30:13.413Z,5.76
2019-04-03T19:32:46.080Z,5.63
2019-04-03T19:35:20.313Z,5.60
2019-04-03T19:37:52.758Z,5.83
2019-04-03T19:40:25.397Z,5.83
2019-04-03T19:42:57.779Z,5.79
2019-04-03T19:45:33.272Z,5.64
2019-04-03T19:48:06.049Z,5.50
2019-04-03T19:50:38.490Z,5.50
2019-04-03T19:53:13.195Z,5.52
2019-04-03T19:55:45.387Z,5.43
2019-04-03T19:58:18.347Z,5.50
2019-04-03T20:00:51.635Z,5.44
2019-04-03T20:03:24.645Z,5.44
2019-04-03T20:05:58.824Z,5.72
2019-04-03T20:08:31.683Z,5.54
2019-04-03T20:11:05.089Z,5.46
2019-04-03T20:13:39.873Z,5.36
2019-04-03T20:16:12.998Z,5.10
2019-04-03T20:18:45.806Z,5.10
2019-04-03T20:21:18.322Z,5.02
2019-04-03T20:23:50.881Z,5.18
2019-04-03T20:26:24.033Z,5.18
2019-04-03T20:28:58.562Z,5.18
2019-04-03T20:31:36.309Z,5.04
2019-04-03T20:34:08.867Z,5.12
2019-04-03T20:36:41.471Z,5.22
2019-04-03T20:39:17.470Z,5.08
2019-04-03T20:41:50.324Z,5.00
2019-04-03T20:44:22.740Z,5.03
2019-04-03T20:46:56.563Z,5.03
2019-04-03T20:49:28.878Z,5.01
2019-04-03T20:52:01.329Z,4.87
2019-04-03T20:54:33.745Z,4.99
2019-04-03T20:57:13.822Z,4.99
2019-04-03T20:59:58.655Z,4.94
2019-04-03T21:02:21.371Z,4.77
2019-04-03T21:04:53.911Z,4.73
2019-04-03T21:07:26.324Z,4.73
2019-04-03T21:10:00.519Z,4.61
2019-04-03T21:12:35.832Z,4.61
2019-04-03T21:15:14.178Z,4.78
2019-04-03T21:17:51.377Z,4.95
2019-04-03T21:20:24.766Z,5.15
2019-04-03T21:22:58.745Z,5.15
2019-04-03T21:25:31.307Z,5.31
2019-04-03T21:28:03.870Z,5.39
2019-04-03T21:30:36.431Z,5.46
2019-04-03T21:33:08.825Z,5.58
2019-04-03T21:35:42.391Z,5.68
2019-04-03T21:38:20.015Z,5.63
2019-04-03T21:40:55.765Z,5.63
2019-04-03T21:43:29.802Z,5.73
2019-04-03T21:46:02.305Z,5.79
2019-04-03T21:48:34.866Z,5.87
2019-04-03T21:51:07.748Z,5.73
2019-04-03T21:53:44.589Z,5.91
2019-04-03T21:56:31.007Z,5.91
2019-04-03T21:59:05.823Z,5.92
2019-04-03T22:01:45.420Z,5.96
2019-04-03T22:04:22.845Z,6.05
2019-04-03T22:07:01.866Z,6.10
2019-04-03T22:09:34.749Z,6.09
2019-04-03T22:12:07.668Z,6.09
2019-04-03T22:14:43.482Z,6.08
2019-04-03T22:17:23.751Z,6.10
2019-04-03T22:19:59.386Z,6.04
2019-04-03T22:22:33.836Z,6.05
2019-04-03T22:25:09.021Z,6.09
2019-04-03T22:27:42.853Z,6.24
2019-04-03T22:30:16.173Z,6.28
2019-04-03T22:32:49.753Z,6.20
2019-04-03T22:35:39.404Z,6.24
2019-04-03T22:38:14.805Z,6.20
2019-04-03T22:40:53.557Z,6.17
2019-04-03T22:43:21.789Z,6.20
2019-04-03T22:45:54.390Z,6.22
2019-04-03T22:48:28.425Z,6.23
2019-04-03T22:51:00.873Z,6.22
2019-04-03T22:53:33.398Z,6.25
2019-04-03T22:56:05.876Z,6.23
2019-04-03T22:58:41.031Z,6.29
2019-04-03T23:01:13.700Z,6.29
2019-04-03T23:03:49.552Z,6.25
2019-04-03T23:06:22.294Z,6.20
2019-04-03T23:08:59.354Z,6.18
2019-04-03T23:11:32.023Z,6.11
2019-04-03T23:14:08.002Z,6.11
2019-04-03T23:16:42.683Z,6.23
2019-04-03T23:19:21.684Z,6.26
2019-04-03T23:21:55.571Z,6.27
2019-04-03T23:24:32.018Z,6.23
2019-04-03T23:27:04.431Z,6.21
2019-04-03T23:29:37.866Z,6.15
2019-04-03T23:32:15.278Z,6.09
2019-04-03T23:34:53.618Z,6.08
2019-04-03T23:37:26.292Z,6.06
2019-04-03T23:40:00.751Z,6.03
2019-04-03T23:42:32.256Z,5.96
2019-04-03T23:45:07.041Z,5.93
2019-04-03T23:47:45.139Z,5.78
2019-04-03T23:50:13.691Z,5.74
2019-04-03T23:52:46.298Z,5.72
2019-04-03T23:55:21.009Z,5.68
2019-04-03T23:57:55.306Z,5.63
